createdAt,value
2019-05-20T00:01:03.551Z,99210.77
2019-05-20T00:03:32.552Z,99220.50
2019-05-20T00:06:01.534Z,99203.44
2019-05-20T00:08:30.406Z,99212.07
2019-05-20T00:10:59.370Z,99213.12
2019-05-20T00:13:28.417Z,99212.58
2019-05-20T00:15:57.269Z,99217.35
2019-05-20T00:18:26.331Z,99225.97
2019-05-20T00:20:55.262Z,99223.30
2019-05-20T00:23:24.213Z,99226.64
2019-05-20T00:25:53.095Z,99224.75
2019-05-20T00:28:22.066Z,99226.88
2019-05-20T00:30:51.093Z,99235.47
2019-05-20T00:33:20.052Z,99224.45
2019-05-20T00:35:49.005Z,99231.45
2019-05-20T00:38:17.895Z,99216.04
2019-05-20T00:40:46.726Z,99230.91
2019-05-20T00:43:15.598Z,99224.48
2019-05-20T00:45:44.621Z,99222.59
2019-05-20T00:48:13.487Z,99215.26
2019-05-20T00:50:42.417Z,99217.39
2019-05-20T00:53:11.410Z,99220.26
2019-05-20T00:55:40.514Z,99220.48
2019-05-20T00:58:09.506Z,99213.38
2019-05-20T01:00:39.099Z,99219.33
2019-05-20T01:03:08.060Z,99223.06
2019-05-20T01:05:37.063Z,99224.81
2019-05-20T01:08:06.995Z,99220.95
2019-05-20T01:10:36.063Z,99212.11
2019-05-20T01:13:05.010Z,99220.56
2019-05-20T01:15:33.988Z,99225.31
2019-05-20T01:18:03.011Z,99223.37
2019-05-20T01:20:31.921Z,99233.33
2019-05-20T01:23:00.802Z,99221.27
2019-05-20T01:25:29.762Z,99208.55
2019-05-20T01:27:58.729Z,99208.55
2019-05-20T01:30:27.694Z,99215.58
2019-05-20T01:32:56.657Z,99212.80
2019-05-20T01:35:25.694Z,99202.53
2019-05-20T01:37:57.444Z,99203.84
2019-05-20T01:40:30.650Z,99204.38
2019-05-20T01:43:02.790Z,99198.47
2019-05-20T01:45:34.386Z,99198.75
2019-05-20T01:48:07.087Z,99187.91
2019-05-20T01:50:36.091Z,99176.20
2019-05-20T01:53:04.901Z,99185.52
2019-05-20T01:55:33.738Z,99183.05
2019-05-20T01:58:02.764Z,99188.11
2019-05-20T02:00:31.691Z,99191.45
2019-05-20T02:03:00.574Z,99186.16
2019-05-20T02:05:29.576Z,99183.96
2019-05-20T02:07:58.849Z,99184.63
2019-05-20T02:10:27.705Z,99187.97
2019-05-20T02:12:56.711Z,99187.36
2019-05-20T02:15:37.726Z,99186.39
2019-05-20T02:18:06.619Z,99186.39
2019-05-20T02:20:35.635Z,99186.34
2019-05-20T02:23:14.893Z,99183.80
2019-05-20T02:25:47.829Z,99179.06
2019-05-20T02:28:17.208Z,99172.88
2019-05-20T02:30:46.058Z,99173.89
2019-05-20T02:33:15.014Z,99179.77
2019-05-20T02:35:43.933Z,99176.45
2019-05-20T02:38:12.821Z,99176.45
2019-05-20T02:40:41.807Z,99172.77
2019-05-20T02:43:10.694Z,99184.73
2019-05-20T02:45:39.631Z,99193.70
2019-05-20T02:48:08.611Z,99201.39
2019-05-20T02:50:37.618Z,99199.34
2019-05-20T02:53:06.578Z,99202.79
2019-05-20T02:55:35.480Z,99200.97
2019-05-20T02:58:04.435Z,99201.39
2019-05-20T03:00:33.393Z,99202.41
2019-05-20T03:03:02.365Z,99196.52
2019-05-20T03:05:31.176Z,99193.55
2019-05-20T03:08:00.174Z,99196.67
2019-05-20T03:10:29.127Z,99199.28
2019-05-20T03:12:58.067Z,99198.58
2019-05-20T03:15:27.043Z,99193.36
2019-05-20T03:17:55.986Z,99196.34
2019-05-20T03:20:25.036Z,99206.38
2019-05-20T03:22:55.472Z,99212.56
2019-05-20T03:25:24.445Z,99221.29
2019-05-20T03:27:53.387Z,99224.05
2019-05-20T03:30:22.472Z,99223.77
2019-05-20T03:32:51.473Z,99224.28
2019-05-20T03:35:20.448Z,99223.89
2019-05-20T03:37:49.432Z,99221.84
2019-05-20T03:40:18.466Z,99215.17
2019-05-20T03:42:47.516Z,99215.77
2019-05-20T03:45:16.583Z,99215.73
2019-05-20T03:47:45.481Z,99211.59
2019-05-20T03:50:14.775Z,99207.87
2019-05-20T03:52:43.598Z,99213.55
2019-05-20T03:55:12.615Z,99219.23
2019-05-20T03:57:41.628Z,99222.08
2019-05-20T04:00:11.765Z,99222.59
2019-05-20T04:02:40.704Z,99213.90
2019-05-20T04:05:09.721Z,99219.54
2019-05-20T04:07:38.608Z,99217.96
2019-05-20T04:10:07.868Z,99206.43
2019-05-20T04:12:36.863Z,99210.14
2019-05-20T04:15:06.041Z,99218.19
2019-05-20T04:17:35.025Z,99213.92
2019-05-20T04:20:04.141Z,99217.96
2019-05-20T04:22:32.951Z,99216.02
2019-05-20T04:25:02.048Z,99220.59
2019-05-20T04:27:31.044Z,99224.30
2019-05-20T04:30:00.048Z,99219.75
2019-05-20T04:32:29.237Z,99216.63
2019-05-20T04:35:18.322Z,99221.58
2019-05-20T04:37:31.176Z,99212.66
2019-05-20T04:40:00.181Z,99218.13
2019-05-20T04:42:29.373Z,99217.96
2019-05-20T04:44:58.386Z,99215.65
2019-05-20T04:47:27.300Z,99224.22
2019-05-20T04:49:56.297Z,99216.87
2019-05-20T04:52:25.363Z,99218.68
2019-05-20T04:54:54.222Z,99221.67
2019-05-20T04:57:23.192Z,99226.34
2019-05-20T04:59:52.166Z,99224.98
2019-05-20T05:02:21.063Z,99234.94
2019-05-20T05:04:50.142Z,99234.94
2019-05-20T05:07:19.135Z,99234.94
2019-05-20T05:09:48.128Z,99234.94
2019-05-20T05:12:17.159Z,99244.17
2019-05-20T05:14:46.114Z,99241.63
2019-05-20T05:17:15.321Z,99244.45
2019-05-20T05:19:44.302Z,99242.06
2019-05-20T05:22:13.692Z,99244.75
2019-05-20T05:24:42.890Z,99245.21
2019-05-20T05:27:11.884Z,99245.81
2019-05-20T05:29:40.845Z,99240.16
2019-05-20T05:32:09.854Z,99242.91
2019-05-20T05:34:39.233Z,99243.93
2019-05-20T05:37:08.246Z,99254.58
2019-05-20T05:39:37.304Z,99254.59
2019-05-20T05:42:06.376Z,99255.27
2019-05-20T05:44:35.383Z,99261.63
2019-05-20T05:47:04.343Z,99255.80
2019-05-20T05:49:33.189Z,99258.86
2019-05-20T05:52:02.161Z,99258.85
2019-05-20T05:54:31.124Z,99246.97
2019-05-20T05:56:59.974Z,99248.13
2019-05-20T05:59:28.987Z,99255.23
2019-05-20T06:01:57.920Z,99251.72
2019-05-20T06:04:26.894Z,99258.72
2019-05-20T06:06:55.893Z,99245.34
2019-05-20T06:09:24.700Z,99248.33
2019-05-20T06:11:53.610Z,99256.33
2019-05-20T06:14:22.450Z,99245.39
2019-05-20T06:16:51.411Z,99255.84
2019-05-20T06:19:23.185Z,99249.67
2019-05-20T06:21:52.209Z,99253.50
2019-05-20T06:24:21.189Z,99248.55
2019-05-20T06:26:50.196Z,99259.40
2019-05-20T06:29:20.668Z,99261.87
2019-05-20T06:31:49.912Z,99263.23
2019-05-20T06:34:19.060Z,99272.00
2019-05-20T06:36:50.838Z,99268.48
2019-05-20T06:39:19.789Z,99266.36
2019-05-20T06:41:48.662Z,99263.92
2019-05-20T06:44:17.668Z,99263.34
2019-05-20T06:46:46.572Z,99269.09
2019-05-20T06:49:15.427Z,99279.33
2019-05-20T06:51:44.402Z,99264.31
2019-05-20T06:54:13.320Z,99267.05
2019-05-20T06:56:42.408Z,99277.09
2019-05-20T06:59:11.612Z,99272.19
2019-05-20T07:01:40.634Z,99274.21
2019-05-20T07:04:09.591Z,99271.88
2019-05-20T07:06:46.818Z,99281.56
2019-05-20T07:09:09.285Z,99284.39
2019-05-20T07:11:38.457Z,99283.72
2019-05-20T07:14:07.566Z,99293.23
2019-05-20T07:16:36.608Z,99296.74
2019-05-20T07:19:05.788Z,99294.63
2019-05-20T07:21:34.642Z,99279.98
2019-05-20T07:24:04.080Z,99291.69
2019-05-20T07:26:33.361Z,99297.27
2019-05-20T07:29:02.353Z,99282.73
2019-05-20T07:31:31.338Z,99287.67
2019-05-20T07:34:00.304Z,99286.87
2019-05-20T07:36:29.190Z,99298.48
2019-05-20T07:38:58.137Z,99302.69
2019-05-20T07:41:27.079Z,99305.52
2019-05-20T07:43:56.064Z,99304.75
2019-05-20T07:46:25.604Z,99304.08
2019-05-20T07:48:55.082Z,99302.34
2019-05-20T07:51:24.618Z,99296.22
2019-05-20T07:53:53.692Z,99302.50
2019-05-20T07:56:26.091Z,99300.53
2019-05-20T07:58:58.109Z,99303.66
2019-05-20T08:01:27.600Z,99305.58
2019-05-20T08:03:56.621Z,99308.56
2019-05-20T08:06:25.641Z,99307.58
2019-05-20T08:08:54.674Z,99305.38
2019-05-20T08:11:23.596Z,99309.42
2019-05-20T08:13:56.720Z,99314.25
2019-05-20T08:16:25.828Z,99303.17
2019-05-20T08:18:54.919Z,99310.45
2019-05-20T08:21:23.811Z,99314.10
2019-05-20T08:23:52.864Z,99302.41
2019-05-20T08:26:21.910Z,99311.45
2019-05-20T08:28:50.954Z,99308.20
2019-05-20T08:31:19.929Z,99311.44
2019-05-20T08:33:48.747Z,99316.28
2019-05-20T08:36:17.694Z,99323.27
2019-05-20T08:38:46.481Z,99327.84
2019-05-20T08:41:15.784Z,99311.92
2019-05-20T08:43:49.722Z,99317.08
2019-05-20T08:46:18.888Z,99320.12
2019-05-20T08:48:47.864Z,99324.41
2019-05-20T08:51:16.797Z,99328.05
2019-05-20T08:53:45.828Z,99332.80
2019-05-20T08:56:14.811Z,99329.53
2019-05-20T08:58:43.603Z,99324.64
2019-05-20T09:01:12.669Z,99328.56
2019-05-20T09:03:41.479Z,99333.62
2019-05-20T09:06:10.609Z,99331.44
2019-05-20T09:08:39.662Z,99328.52
2019-05-20T09:11:08.653Z,99325.28
2019-05-20T09:13:37.637Z,99328.89
2019-05-20T09:16:06.599Z,99324.64
2019-05-20T09:18:35.604Z,99324.91
2019-05-20T09:21:04.575Z,99329.73
2019-05-20T09:23:33.549Z,99321.41
2019-05-20T09:26:02.405Z,99314.58
2019-05-20T09:28:31.318Z,99314.58
2019-05-20T09:31:00.238Z,99321.95
2019-05-20T09:33:29.303Z,99323.25
2019-05-20T09:35:58.386Z,99323.25
2019-05-20T09:38:27.252Z,99326.59
2019-05-20T09:40:56.234Z,99321.95
2019-05-20T09:43:26.080Z,99328.49
2019-05-20T09:46:06.706Z,99324.36
2019-05-20T09:48:25.703Z,99325.45
2019-05-20T09:50:54.720Z,99325.91
2019-05-20T09:53:24.132Z,99325.52
2019-05-20T09:55:53.098Z,99328.15
2019-05-20T09:58:21.978Z,99321.84
2019-05-20T10:00:50.986Z,99330.37
2019-05-20T10:03:19.981Z,99318.23
2019-05-20T10:05:48.869Z,99330.66
2019-05-20T10:08:34.517Z,99334.54
2019-05-20T10:10:48.559Z,99334.52
2019-05-20T10:13:17.545Z,99334.38
2019-05-20T10:15:46.439Z,99340.02
2019-05-20T10:18:15.377Z,99333.08
2019-05-20T10:20:44.259Z,99341.41
2019-05-20T10:23:15.759Z,99337.83
2019-05-20T10:25:43.879Z,99337.83
2019-05-20T10:28:12.873Z,99337.92
2019-05-20T10:30:41.901Z,99331.40
2019-05-20T10:33:11.105Z,99337.30
2019-05-20T10:35:40.233Z,99349.08
2019-05-20T10:38:09.270Z,99366.06
2019-05-20T10:40:38.307Z,99349.36
2019-05-20T10:43:07.186Z,99363.88
2019-05-20T10:45:36.268Z,99361.14
2019-05-20T10:48:08.768Z,99364.86
2019-05-20T10:50:36.122Z,99367.95
2019-05-20T10:53:05.229Z,99377.25
2019-05-20T10:55:38.134Z,99379.39
2019-05-20T10:58:06.755Z,99382.19
2019-05-20T11:00:35.770Z,99388.41
2019-05-20T11:03:04.826Z,99389.02
2019-05-20T11:05:42.346Z,99389.85
2019-05-20T11:08:39.675Z,99386.56
2019-05-20T11:11:14.181Z,99395.10
2019-05-20T11:13:40.977Z,99392.08
2019-05-20T11:16:09.888Z,99395.43
2019-05-20T11:18:38.739Z,99398.65
2019-05-20T11:21:07.635Z,99395.07
2019-05-20T11:23:36.598Z,99393.11
2019-05-20T11:26:05.553Z,99393.48
2019-05-20T11:28:34.570Z,99396.41
2019-05-20T11:31:03.545Z,99388.19
2019-05-20T11:33:32.557Z,99386.02
2019-05-20T11:36:01.438Z,99399.33
2019-05-20T11:38:30.723Z,99390.06
2019-05-20T11:40:59.629Z,99393.88
2019-05-20T11:43:28.581Z,99389.00
2019-05-20T11:45:57.495Z,99396.05
2019-05-20T11:48:26.345Z,99386.09
2019-05-20T11:50:55.097Z,99376.82
2019-05-20T11:53:23.988Z,99383.45
2019-05-20T11:55:52.858Z,99375.53
2019-05-20T11:58:21.948Z,99371.89
2019-05-20T12:00:50.935Z,99372.84
2019-05-20T12:03:19.871Z,99377.66
2019-05-20T12:05:48.792Z,99377.66
2019-05-20T12:08:17.661Z,99382.13
2019-05-20T12:10:46.580Z,99386.92
2019-05-20T12:13:16.497Z,99386.11
2019-05-20T12:15:45.439Z,99388.64
2019-05-20T12:18:14.314Z,99393.57
2019-05-20T12:20:43.232Z,99387.09
2019-05-20T12:23:12.221Z,99384.99
2019-05-20T12:25:41.059Z,99401.56
2019-05-20T12:28:10.192Z,99385.47
2019-05-20T12:30:39.543Z,99389.70
2019-05-20T12:33:18.516Z,99391.55
2019-05-20T12:35:38.935Z,99401.97
2019-05-20T12:38:07.895Z,99386.11
2019-05-20T12:40:36.751Z,99389.58
2019-05-20T12:43:05.713Z,99392.45
2019-05-20T12:45:34.653Z,99389.88
2019-05-20T12:48:03.604Z,99387.75
2019-05-20T12:50:32.551Z,99387.40
2019-05-20T12:53:01.458Z,99396.44
2019-05-20T12:55:30.394Z,99393.89
2019-05-20T12:57:59.358Z,99399.42
2019-05-20T13:00:28.286Z,99400.84
2019-05-20T13:02:57.169Z,99393.47
2019-05-20T13:05:26.189Z,99402.89
2019-05-20T13:07:55.268Z,99391.81
2019-05-20T13:10:29.546Z,99387.44
2019-05-20T13:12:55.047Z,99393.33
2019-05-20T13:15:24.061Z,99392.70
2019-05-20T13:17:53.451Z,99396.00
2019-05-20T13:20:22.800Z,99400.88
2019-05-20T13:22:51.965Z,99396.83
2019-05-20T13:25:20.912Z,99391.70
2019-05-20T13:27:49.787Z,99386.47
2019-05-20T13:30:19.254Z,99383.80
2019-05-20T13:32:48.193Z,99380.77
2019-05-20T13:35:17.637Z,99369.44
2019-05-20T13:37:46.671Z,99375.05
2019-05-20T13:40:16.152Z,99364.00
2019-05-20T13:42:45.010Z,99365.67
2019-05-20T13:45:14.437Z,99369.91
2019-05-20T13:47:43.207Z,99371.01
2019-05-20T13:50:12.905Z,99385.28
2019-05-20T13:52:41.839Z,99373.69
2019-05-20T13:55:11.420Z,99378.05
2019-05-20T13:57:40.432Z,99382.16
2019-05-20T14:00:10.263Z,99374.27
2019-05-20T14:02:39.389Z,99372.86
2019-05-20T14:05:08.359Z,99372.38
2019-05-20T14:07:37.172Z,99384.38
2019-05-20T14:10:06.415Z,99379.77
2019-05-20T14:12:35.403Z,99378.69
2019-05-20T14:15:04.805Z,99384.91
2019-05-20T14:17:33.814Z,99384.91
2019-05-20T14:20:03.134Z,99389.53
2019-05-20T14:22:32.206Z,99380.03
2019-05-20T14:25:03.634Z,99383.83
2019-05-20T14:27:32.629Z,99393.57
2019-05-20T14:30:01.612Z,99394.13
2019-05-20T14:32:30.677Z,99394.38
2019-05-20T14:34:59.610Z,99387.62
2019-05-20T14:37:28.667Z,99391.70
2019-05-20T14:39:57.698Z,99385.47
2019-05-20T14:42:26.631Z,99382.95
2019-05-20T14:44:55.541Z,99392.67
2019-05-20T14:47:26.164Z,99394.05
2019-05-20T14:49:55.169Z,99387.48
2019-05-20T14:52:24.293Z,99385.19
2019-05-20T14:54:53.287Z,99381.64
2019-05-20T14:57:22.209Z,99388.61
2019-05-20T14:59:51.227Z,99398.17
2019-05-20T15:02:20.119Z,99386.47
2019-05-20T15:04:49.160Z,99398.11
2019-05-20T15:07:29.151Z,99397.11
2019-05-20T15:09:48.852Z,99405.61
2019-05-20T15:12:17.769Z,99399.09
2019-05-20T15:14:46.639Z,99387.51
2019-05-20T15:17:15.646Z,99401.59
2019-05-20T15:19:44.612Z,99404.52
2019-05-20T15:22:13.931Z,99403.52
2019-05-20T15:24:42.807Z,99388.33
2019-05-20T15:27:11.801Z,99393.79
2019-05-20T15:29:40.796Z,99400.80
2019-05-20T15:32:09.680Z,99393.20
2019-05-20T15:34:38.859Z,99401.93
2019-05-20T15:37:07.874Z,99404.31
2019-05-20T15:39:36.751Z,99408.63
2019-05-20T15:42:05.786Z,99408.31
2019-05-20T15:44:34.933Z,99418.42
2019-05-20T15:47:03.793Z,99411.92
2019-05-20T15:49:32.631Z,99409.22
2019-05-20T15:52:01.549Z,99415.48
2019-05-20T15:54:30.442Z,99409.22
2019-05-20T15:56:59.493Z,99414.86
2019-05-20T15:59:43.141Z,99405.90
2019-05-20T16:01:59.041Z,99405.90
2019-05-20T16:04:27.957Z,99407.98
2019-05-20T16:07:00.174Z,99404.05
2019-05-20T16:09:27.531Z,99401.88
2019-05-20T16:11:57.459Z,99404.04
2019-05-20T16:14:26.354Z,99399.94
2019-05-20T16:16:55.289Z,99398.36
2019-05-20T16:19:24.301Z,99402.69
2019-05-20T16:21:53.302Z,99397.75
2019-05-20T16:24:22.230Z,99400.45
2019-05-20T16:26:51.227Z,99409.69
2019-05-20T16:29:20.211Z,99405.39
2019-05-20T16:31:49.115Z,99406.17
2019-05-20T16:34:18.051Z,99405.09
2019-05-20T16:36:47.080Z,99402.38
2019-05-20T16:39:16.504Z,99399.17
2019-05-20T16:41:45.574Z,99399.98
2019-05-20T16:44:14.536Z,99403.19
2019-05-20T16:46:43.529Z,99390.51
2019-05-20T16:49:12.571Z,99389.26
2019-05-20T16:51:41.513Z,99394.06
2019-05-20T16:54:10.458Z,99391.90
2019-05-20T16:56:39.434Z,99386.82
2019-05-20T16:59:08.518Z,99401.33
2019-05-20T17:01:45.930Z,99410.38
2019-05-20T17:04:08.188Z,99391.28
2019-05-20T17:06:37.212Z,99405.16
2019-05-20T17:09:06.457Z,99399.98
2019-05-20T17:11:35.539Z,99410.84
2019-05-20T17:14:04.579Z,99407.63
2019-05-20T17:16:33.646Z,99427.81
2019-05-20T17:19:02.690Z,99424.80
2019-05-20T17:21:31.581Z,99432.20
2019-05-20T17:24:00.524Z,99421.66
2019-05-20T17:26:29.493Z,99406.19
2019-05-20T17:28:58.464Z,99411.73
2019-05-20T17:31:30.679Z,99405.90
2019-05-20T17:33:58.223Z,99415.29
2019-05-20T17:36:27.363Z,99420.94
2019-05-20T17:38:56.186Z,99434.84
2019-05-20T17:41:25.330Z,99432.06
2019-05-20T17:43:54.236Z,99419.73
2019-05-20T17:46:23.354Z,99421.59
2019-05-20T17:48:52.400Z,99414.55
2019-05-20T17:51:21.400Z,99420.13
2019-05-20T17:53:50.459Z,99411.77
2019-05-20T17:56:19.673Z,99419.58
2019-05-20T17:58:48.651Z,99422.23
2019-05-20T18:01:17.523Z,99423.58
2019-05-20T18:03:46.575Z,99430.94
2019-05-20T18:06:15.517Z,99413.27
2019-05-20T18:08:47.420Z,99422.45
2019-05-20T18:11:19.259Z,99431.06
2019-05-20T18:13:47.117Z,99431.39
2019-05-20T18:16:16.079Z,99428.45
2019-05-20T18:18:44.979Z,99420.83
2019-05-20T18:21:13.907Z,99429.44
2019-05-20T18:23:42.806Z,99435.34
2019-05-20T18:26:11.801Z,99430.97
2019-05-20T18:28:41.095Z,99425.02
2019-05-20T18:31:10.079Z,99427.66
2019-05-20T18:33:39.098Z,99440.08
2019-05-20T18:36:08.088Z,99443.88
2019-05-20T18:38:36.978Z,99436.80
2019-05-20T18:41:05.945Z,99430.41
2019-05-20T18:43:35.004Z,99425.66
2019-05-20T18:46:03.904Z,99426.62
2019-05-20T18:48:33.102Z,99448.97
2019-05-20T18:51:02.231Z,99458.48
2019-05-20T18:53:31.254Z,99460.89
2019-05-20T18:56:00.313Z,99448.74
2019-05-20T18:58:29.291Z,99444.69
2019-05-20T19:00:58.213Z,99452.86
2019-05-20T19:03:28.238Z,99451.44
2019-05-20T19:05:57.820Z,99462.48
2019-05-20T19:08:26.818Z,99460.31
2019-05-20T19:10:59.187Z,99453.77
2019-05-20T19:13:28.442Z,99450.57
2019-05-20T19:15:57.387Z,99453.44
2019-05-20T19:18:26.337Z,99461.80
2019-05-20T19:20:55.255Z,99455.64
2019-05-20T19:23:24.234Z,99451.48
2019-05-20T19:25:53.228Z,99454.45
2019-05-20T19:28:22.456Z,99454.64
2019-05-20T19:30:51.519Z,99455.20
2019-05-20T19:33:21.332Z,99453.76
2019-05-20T19:35:50.279Z,99452.16
2019-05-20T19:38:19.355Z,99451.45
2019-05-20T19:40:48.395Z,99451.12
2019-05-20T19:43:17.355Z,99450.53
2019-05-20T19:45:46.304Z,99448.91
2019-05-20T19:48:15.315Z,99469.97
2019-05-20T19:50:44.349Z,99474.56
2019-05-20T19:53:13.447Z,99474.03
2019-05-20T19:55:42.334Z,99476.19
2019-05-20T19:58:11.408Z,99467.55
2019-05-20T20:00:40.263Z,99482.32
2019-05-20T20:03:09.224Z,99498.55
2019-05-20T20:05:38.179Z,99483.97
2019-05-20T20:08:07.194Z,99515.88
2019-05-20T20:10:36.185Z,99508.90
2019-05-20T20:13:05.332Z,99505.30
2019-05-20T20:15:34.324Z,99507.72
2019-05-20T20:18:03.521Z,99505.27
2019-05-20T20:20:32.392Z,99508.86
2019-05-20T20:23:01.393Z,99511.03
2019-05-20T20:25:30.449Z,99517.24
2019-05-20T20:27:59.400Z,99529.59
2019-05-20T20:30:28.569Z,99515.22
2019-05-20T20:32:58.018Z,99522.75
2019-05-20T20:35:37.770Z,99514.72
2019-05-20T20:37:57.720Z,99514.91
2019-05-20T20:40:26.708Z,99510.19
2019-05-20T20:42:55.638Z,99517.37
2019-05-20T20:45:24.622Z,99518.70
2019-05-20T20:47:56.300Z,99511.88
2019-05-20T20:50:27.109Z,99517.42
2019-05-20T20:52:56.451Z,99523.02
2019-05-20T20:55:26.360Z,99539.43
2019-05-20T20:57:55.528Z,99518.63
2019-05-20T21:00:24.769Z,99530.49
2019-05-20T21:02:54.417Z,99532.02
2019-05-20T21:05:24.228Z,99529.33
2019-05-20T21:07:53.247Z,99538.75
2019-05-20T21:10:27.133Z,99539.52
2019-05-20T21:12:56.774Z,99547.92
2019-05-20T21:15:25.798Z,99552.42
2019-05-20T21:17:54.659Z,99550.28
2019-05-20T21:20:23.617Z,99560.11
2019-05-20T21:22:52.563Z,99559.63
2019-05-20T21:25:21.532Z,99563.78
2019-05-20T21:27:50.412Z,99562.17
2019-05-20T21:30:19.416Z,99574.05
2019-05-20T21:32:48.364Z,99563.50
2019-05-20T21:35:17.403Z,99566.84
2019-05-20T21:37:46.351Z,99568.57
2019-05-20T21:40:15.411Z,99565.80
2019-05-20T21:42:44.536Z,99560.65
2019-05-20T21:45:14.043Z,99558.41
2019-05-20T21:47:44.802Z,99563.25
2019-05-20T21:50:13.851Z,99552.37
2019-05-20T21:52:43.062Z,99524.44
2019-05-20T21:55:12.328Z,99552.88
2019-05-20T21:57:41.367Z,99551.08
2019-05-20T22:00:12.924Z,99556.14
2019-05-20T22:02:41.940Z,99545.77
2019-05-20T22:05:11.140Z,99552.37
2019-05-20T22:07:39.963Z,99550.97
2019-05-20T22:10:09.760Z,99557.20
2019-05-20T22:12:38.825Z,99554.53
2019-05-20T22:15:07.885Z,99556.88
2019-05-20T22:17:36.830Z,99560.89
2019-05-20T22:20:06.076Z,99564.20
2019-05-20T22:22:49.134Z,99552.37
2019-05-20T22:25:18.041Z,99548.55
2019-05-20T22:27:49.883Z,99545.52
2019-05-20T22:30:18.952Z,99559.12
2019-05-20T22:32:47.904Z,99540.29
2019-05-20T22:35:16.803Z,99551.81
2019-05-20T22:37:45.597Z,99540.17
2019-05-20T22:40:14.635Z,99542.08
2019-05-20T22:42:43.519Z,99538.14
2019-05-20T22:45:12.615Z,99537.86
2019-05-20T22:47:41.542Z,99540.45
2019-05-20T22:50:10.521Z,99547.84
2019-05-20T22:52:39.341Z,99546.41
2019-05-20T22:55:08.343Z,99543.99
2019-05-20T22:57:37.328Z,99552.52
2019-05-20T23:00:07.427Z,99540.98
2019-05-20T23:02:36.356Z,99543.52
2019-05-20T23:05:05.844Z,99559.34
2019-05-20T23:07:34.848Z,99549.36
2019-05-20T23:10:04.011Z,99541.52
2019-05-20T23:12:32.922Z,99526.59
2019-05-20T23:15:02.023Z,99534.19
2019-05-20T23:17:30.989Z,99528.53
2019-05-20T23:19:59.932Z,99532.84
2019-05-20T23:22:29.000Z,99522.30
2019-05-20T23:24:57.904Z,99531.46
2019-05-20T23:27:26.903Z,99526.17
2019-05-20T23:29:55.885Z,99517.16
2019-05-20T23:32:24.794Z,99517.16
2019-05-20T23:34:53.780Z,99526.85
2019-05-20T23:37:22.781Z,99521.48
2019-05-20T23:39:51.767Z,99516.16
2019-05-20T23:42:20.784Z,99525.33
2019-05-20T23:44:49.827Z,99533.83
2019-05-20T23:47:18.939Z,99529.78
2019-05-20T23:49:47.846Z,99527.59
2019-05-20T23:52:16.722Z,99526.52
2019-05-20T23:54:45.712Z,99534.70
2019-05-20T23:57:14.703Z,99530.56
2019-05-20T23:59:45.203Z,99529.41
